createdAt,value
2019-01-31T00:05:15.779Z,3.33
2019-01-31T00:10:26.025Z,1.40
2019-01-31T00:15:36.514Z,0.90
2019-01-31T00:20:51.814Z,1.23
2019-01-31T00:26:08.254Z,1.77
2019-01-31T00:31:18.286Z,1.07
2019-01-31T00:36:36.749Z,0.83
2019-01-31T00:43:56.910Z,0.70
2019-01-31T00:49:11.684Z,0.70
2019-01-31T00:54:33.082Z,1.27
2019-01-31T00:59:52.076Z,1.37
2019-01-31T01:07:14.247Z,1.20
2019-01-31T01:13:03.423Z,0.87
2019-01-31T01:18:16.098Z,0.90
2019-01-31T01:23:30.598Z,2.10
2019-01-31T01:28:51.919Z,0.80
2019-01-31T01:34:04.286Z,1.13
2019-01-31T01:39:27.297Z,0.60
2019-01-31T01:44:38.950Z,0.90
2019-01-31T01:49:49.358Z,1.10
2019-01-31T01:55:01.635Z,1.43
2019-01-31T02:00:20.067Z,0.70
2019-01-31T02:05:34.469Z,1.13
2019-01-31T02:10:51.941Z,2.53
2019-01-31T02:16:08.148Z,1.23
2019-01-31T02:21:31.165Z,2.20
2019-01-31T02:26:48.120Z,1.93
2019-01-31T02:32:07.692Z,0.93
2019-01-31T02:37:22.586Z,0.90
2019-01-31T02:42:35.345Z,0.87
2019-01-31T02:47:49.361Z,1.07
2019-01-31T02:55:08.649Z,1.43
2019-01-31T03:00:22.812Z,0.97
2019-01-31T03:05:40.202Z,2.70
2019-01-31T03:10:48.134Z,0.63
2019-01-31T03:18:23.536Z,1.10
2019-01-31T03:23:35.888Z,0.93
2019-01-31T03:30:54.211Z,0.90
2019-01-31T03:36:26.034Z,1.13
2019-01-31T03:41:52.429Z,5.12
2019-01-31T03:47:09.785Z,1.87
2019-01-31T03:54:24.329Z,1.53
2019-01-31T03:59:34.700Z,0.63
2019-01-31T04:04:45.811Z,0.93
2019-01-31T04:09:49.007Z,1.57
2019-01-31T04:14:52.236Z,1.07
2019-01-31T04:19:55.449Z,0.87
2019-01-31T04:24:58.709Z,1.60
2019-01-31T04:30:01.911Z,2.10
2019-01-31T04:35:05.269Z,1.37
2019-01-31T04:40:08.711Z,1.30
2019-01-31T04:45:11.990Z,3.17
2019-01-31T04:50:15.155Z,1.47
2019-01-31T04:55:18.356Z,1.70
2019-01-31T05:00:21.553Z,2.10
2019-01-31T05:05:24.770Z,1.33
2019-01-31T05:10:27.990Z,2.37
2019-01-31T05:15:31.349Z,1.90
2019-01-31T05:20:34.574Z,3.37
2019-01-31T05:25:37.770Z,2.33
2019-01-31T05:30:40.982Z,3.13
2019-01-31T05:35:44.186Z,1.07
2019-01-31T05:40:55.178Z,1.80
2019-01-31T05:45:50.729Z,2.80
2019-01-31T05:50:53.911Z,1.57
2019-01-31T05:55:57.295Z,1.97
2019-01-31T06:01:00.506Z,1.57
2019-01-31T06:06:03.741Z,3.43
2019-01-31T06:11:07.985Z,1.87
2019-01-31T06:16:10.154Z,2.13
2019-01-31T06:21:13.374Z,2.33
2019-01-31T06:26:16.558Z,1.83
2019-01-31T06:31:19.774Z,4.53
2019-01-31T06:36:22.970Z,2.63
2019-01-31T06:41:26.178Z,3.60
2019-01-31T06:46:29.374Z,6.58
2019-01-31T06:51:32.585Z,2.07
2019-01-31T06:56:35.809Z,2.20
2019-01-31T07:01:39.014Z,3.60
2019-01-31T07:06:42.398Z,7.60
2019-01-31T07:11:45.582Z,1.77
2019-01-31T07:16:48.847Z,2.10
2019-01-31T07:21:52.059Z,2.37
2019-01-31T07:26:55.597Z,5.80
2019-01-31T07:31:58.959Z,3.00
2019-01-31T07:37:02.343Z,5.50
2019-01-31T07:42:05.719Z,1.50
2019-01-31T07:47:09.143Z,2.60
2019-01-31T07:52:12.608Z,2.10
2019-01-31T07:57:16.034Z,5.07
2019-01-31T08:02:19.440Z,3.33
2019-01-31T08:07:23.045Z,4.07
2019-01-31T08:12:26.674Z,3.97
2019-01-31T08:17:35.832Z,5.10
2019-01-31T08:22:39.309Z,4.17
2019-01-31T08:27:42.727Z,2.37
2019-01-31T08:32:46.127Z,3.30
2019-01-31T08:37:49.555Z,2.37
2019-01-31T08:42:53.031Z,4.00
2019-01-31T08:47:56.528Z,7.37
2019-01-31T08:52:59.953Z,5.60
2019-01-31T08:58:03.462Z,4.83
2019-01-31T09:03:06.925Z,5.43
2019-01-31T09:08:10.438Z,4.67
2019-01-31T09:13:14.104Z,3.30
2019-01-31T09:18:17.679Z,3.22
2019-01-31T09:24:33.807Z,2.27
2019-01-31T09:29:45.391Z,4.77
2019-01-31T09:35:05.210Z,2.83
2019-01-31T09:40:33.880Z,3.03
2019-01-31T09:47:47.774Z,4.70
2019-01-31T09:53:00.611Z,2.30
2019-01-31T09:58:22.396Z,4.27
2019-01-31T10:03:35.245Z,5.50
2019-01-31T10:08:51.642Z,3.93
2019-01-31T10:14:10.130Z,5.23
2019-01-31T10:20:26.843Z,2.83
2019-01-31T10:27:45.310Z,7.40
2019-01-31T10:34:03.796Z,5.10
2019-01-31T10:41:17.076Z,6.47
2019-01-31T10:46:37.521Z,5.90
2019-01-31T10:51:57.094Z,4.78
2019-01-31T10:57:56.546Z,8.37
2019-01-31T11:03:17.456Z,5.90
2019-01-31T11:08:36.716Z,6.87
2019-01-31T11:14:00.005Z,6.00
2019-01-31T11:19:14.344Z,6.83
2019-01-31T11:25:01.412Z,6.33
2019-01-31T11:30:20.151Z,6.87
2019-01-31T11:35:35.769Z,9.43
2019-01-31T11:41:56.751Z,5.87
2019-01-31T11:47:17.302Z,4.90
2019-01-31T11:52:31.862Z,7.43
2019-01-31T11:59:42.940Z,10.90
2019-01-31T12:04:46.482Z,7.23
2019-01-31T12:09:50.042Z,6.07
2019-01-31T12:14:53.691Z,8.20
2019-01-31T12:19:57.160Z,8.07
2019-01-31T12:25:00.972Z,9.90
2019-01-31T12:30:07.639Z,5.63
2019-01-31T12:35:11.168Z,5.63
2019-01-31T12:40:16.271Z,6.33
2019-01-31T12:45:20.391Z,6.97
2019-01-31T12:50:25.872Z,4.03
2019-01-31T12:55:29.551Z,9.03
2019-01-31T13:00:33.091Z,7.77
2019-01-31T13:05:36.829Z,7.77
2019-01-31T13:10:40.333Z,15.07
2019-01-31T13:15:43.970Z,8.40
2019-01-31T13:20:47.479Z,9.23
2019-01-31T13:25:50.996Z,9.33
2019-01-31T13:30:54.486Z,8.55
2019-01-31T13:35:58.079Z,9.93
2019-01-31T13:41:01.725Z,8.60
2019-01-31T13:46:06.036Z,6.77
2019-01-31T13:51:12.053Z,5.25
2019-01-31T13:56:15.699Z,6.97
2019-01-31T14:01:19.406Z,9.13
2019-01-31T14:06:23.025Z,5.57
2019-01-31T14:11:26.662Z,6.30
2019-01-31T14:16:30.400Z,7.20
2019-01-31T14:21:33.797Z,11.13
2019-01-31T14:26:38.449Z,5.95
2019-01-31T14:31:42.356Z,9.27
2019-01-31T14:36:46.125Z,4.80
2019-01-31T14:41:49.771Z,8.93
2019-01-31T14:46:53.327Z,9.03
2019-01-31T14:51:57.111Z,8.93
2019-01-31T14:57:02.452Z,8.20
2019-01-31T15:02:06.199Z,13.50
2019-01-31T15:07:09.763Z,5.27
2019-01-31T15:12:13.443Z,4.63
2019-01-31T15:17:18.055Z,7.07
2019-01-31T15:22:21.815Z,16.60
2019-01-31T15:27:25.454Z,6.80
2019-01-31T15:32:29.165Z,4.50
2019-01-31T15:37:32.655Z,5.00
2019-01-31T15:42:36.383Z,5.70
2019-01-31T15:47:40.017Z,5.80
2019-01-31T15:52:43.671Z,8.17
2019-01-31T15:57:47.244Z,6.83
2019-01-31T16:02:50.955Z,4.87
2019-01-31T16:07:54.504Z,9.80
2019-01-31T16:12:58.051Z,17.43
2019-01-31T16:18:01.643Z,9.17
2019-01-31T16:23:05.319Z,7.77
2019-01-31T16:28:08.844Z,13.17
2019-01-31T16:33:12.482Z,15.23
2019-01-31T16:38:16.172Z,10.37
2019-01-31T16:43:19.908Z,17.17
2019-01-31T16:48:23.516Z,7.20
2019-01-31T16:53:27.226Z,12.37
2019-01-31T16:58:30.716Z,10.43
2019-01-31T17:03:34.411Z,9.13
2019-01-31T17:08:38.009Z,12.57
2019-01-31T17:13:41.748Z,13.40
2019-01-31T17:18:46.410Z,12.20
2019-01-31T17:23:49.877Z,8.67
2019-01-31T17:28:53.530Z,8.17
2019-01-31T17:33:57.673Z,9.57
2019-01-31T17:39:01.204Z,9.93
2019-01-31T17:44:04.809Z,13.07
2019-01-31T17:49:08.314Z,7.97
2019-01-31T17:54:11.931Z,8.93
2019-01-31T17:59:16.289Z,6.20
2019-01-31T18:04:19.858Z,9.77
2019-01-31T18:09:23.523Z,8.30
2019-01-31T18:14:27.025Z,8.60
2019-01-31T18:19:30.692Z,9.33
2019-01-31T18:24:34.229Z,6.63
2019-01-31T18:29:37.835Z,6.90
2019-01-31T18:34:41.607Z,6.53
2019-01-31T18:39:45.180Z,13.27
2019-01-31T18:44:49.208Z,8.10
2019-01-31T18:49:52.834Z,6.57
2019-01-31T18:54:56.566Z,6.43
2019-01-31T19:00:00.368Z,9.33
2019-01-31T19:05:04.092Z,6.83
2019-01-31T19:10:08.021Z,6.63
2019-01-31T19:15:12.160Z,8.70
2019-01-31T19:20:19.317Z,15.03
2019-01-31T19:25:22.936Z,3.67
2019-01-31T19:30:33.126Z,3.33
2019-01-31T19:35:37.110Z,8.70
2019-01-31T19:40:42.942Z,5.63
2019-01-31T19:45:48.456Z,3.90
2019-01-31T19:50:51.974Z,9.43
2019-01-31T19:55:55.567Z,2.50
2019-01-31T20:00:59.229Z,4.23
2019-01-31T20:06:02.777Z,5.60
2019-01-31T20:11:06.439Z,6.47
2019-01-31T20:16:09.971Z,4.30
2019-01-31T20:21:13.525Z,8.53
2019-01-31T20:26:17.760Z,14.70
2019-01-31T20:31:21.435Z,13.80
2019-01-31T20:36:24.948Z,11.10
2019-01-31T20:41:28.525Z,9.87
2019-01-31T20:46:39.675Z,6.43
2019-01-31T20:51:36.623Z,3.87
2019-01-31T20:56:40.204Z,5.87
2019-01-31T21:01:43.765Z,8.20
2019-01-31T21:06:47.457Z,8.30
2019-01-31T21:11:51.228Z,6.50
2019-01-31T21:16:54.949Z,5.33
2019-01-31T21:21:58.690Z,4.60
2019-01-31T21:27:02.381Z,9.93
2019-01-31T21:32:06.096Z,3.20
2019-01-31T21:37:09.856Z,4.00
2019-01-31T21:42:13.687Z,3.83
2019-01-31T21:47:17.374Z,8.77
2019-01-31T21:52:20.877Z,4.40
2019-01-31T21:57:24.818Z,4.63
2019-01-31T22:02:28.364Z,3.57
2019-01-31T22:07:31.880Z,5.43
2019-01-31T22:12:35.454Z,5.90
2019-01-31T22:17:39.264Z,5.97
2019-01-31T22:22:42.711Z,9.90
2019-01-31T22:27:46.254Z,6.47
2019-01-31T22:32:49.779Z,13.90
2019-01-31T22:37:53.209Z,7.07
2019-01-31T22:42:56.778Z,5.63
2019-01-31T22:48:00.427Z,4.60
2019-01-31T22:53:03.796Z,9.07
2019-01-31T22:58:07.548Z,7.00
2019-01-31T23:03:11.167Z,9.60
2019-01-31T23:08:14.680Z,2.93
2019-01-31T23:13:18.248Z,12.53
2019-01-31T23:18:21.820Z,2.23
2019-01-31T23:23:25.477Z,4.80
2019-01-31T23:28:28.849Z,5.20
2019-01-31T23:33:32.228Z,5.33
2019-01-31T23:38:35.585Z,4.67
2019-01-31T23:43:39.030Z,8.77
2019-01-31T23:48:42.413Z,8.30
2019-01-31T23:53:45.876Z,4.63
2019-01-31T23:58:49.254Z,2.40
